This is the latest recevied weather packets stored in our database for station/object KC0RKM-13. If no packets are shown the sender has not sent any weather packets the latest 10 day(s).
| Time | Temp. | Humidity | Pressure | Rain* | Wind** | Luminosity | Snow |
|---|---|---|---|---|---|---|---|
| 1788471003 | 36.67° C | 37% | 1009 hPa | 0 mm | - | - | - |
| 1788469804 | 36.11° C | 39% | 1009.2 hPa | 0 mm | - | - | - |
| 1788469204 | 36.67° C | 38% | 1009.2 hPa | 0 mm | - | - | - |
| 1788467404 | 36.11° C | 38% | 1009.7 hPa | 0 mm | - | - | - |
| 1788465603 | 36.11° C | 40% | 1010 hPa | 0 mm | - | - | - |
| 1788449404 | 31.11° C | 54% | 1012.9 hPa | 0 mm | - | - | - |
| 1788445804 | 28.89° C | 61% | 1013 hPa | 0 mm | - | - | - |
| 1788445204 | 28.33° C | 62% | 1012.9 hPa | 0 mm | - | - | - |
| 1788444604 | 27.78° C | 63% | 1013 hPa | 0 mm | - | - | - |
| 1788442204 | 26.67° C | 66% | 1013.3 hPa | 0 mm | - | - | - |
| 1788441604 | 26.67° C | 67% | 1013.3 hPa | 0 mm | - | - | - |
| 1788434403 | 25° C | 69% | 1012.7 hPa | 0 mm | - | - | - |
| 1788433803 | 25° C | 69% | 1012.7 hPa | 0 mm | - | - | - |
| 1788433203 | 25° C | 70% | 1012.6 hPa | 0 mm | - | - | - |
| 1788431404 | 25° C | 68% | 1012.4 hPa | 0 mm | - | - | - |
| 1788430804 | 25.56° C | 67% | 1012.2 hPa | 0 mm | - | - | - |
| 1788430204 | 25.56° C | 66% | 1012.4 hPa | 0 mm | - | - | - |
| 1788429604 | 25.56° C | 65% | 1012.5 hPa | 0 mm | - | - | - |
| 1788428404 | 25.56° C | 65% | 1012.5 hPa | 0 mm | - | - | - |
| 1788427803 | 25.56° C | 64% | 1012.3 hPa | 0 mm | - | - | - |
| 1788427203 | 25° C | 64% | 1012.3 hPa | 0 mm | - | - | - |
| 1788426604 | 25.56° C | 64% | 1012.2 hPa | 0 mm | - | - | - |
| 1788426004 | 25° C | 64% | 1012.2 hPa | 0 mm | - | - | - |
| 1788424804 | 25.56° C | 63% | 1012 hPa | 0 mm | - | - | - |
| 1788424204 | 26.11° C | 62% | 1012.3 hPa | 0 mm | - | - | - |
* Rain latest hour (hover to see other rain measurements)
** Current wind speed in m/s (hover to see current wind gust speed)